SWA2060 KDEN-KSAT
Flight info
| Callsign | SWA2060 |
|---|---|
| Flight time | 1h 39m |
| Altitude | 35000 |
| Route | SLEEK2 SLEEK PNH PRTZY POPPO2 |
| Aircraft | B738/M-SADE2E3GIJ4RWZ/LB1D1 |
Departure
| Time | 2026-04-21 16:00 |
|---|---|
| Airport | Denver International Airport (KDEN) |
Arrival
| Time | 2026-04-21 17:39 |
|---|---|
| Airport | San Antonio International Airport (KSAT) |
| Time | Latitude | Longitude | Altitude | Speed | Heading |
|---|---|---|---|---|---|
| 2026-04-21 15:16 | 39.86349 | -104.67012 | 5373 ft | 0 kts | 180° |
| 2026-04-21 15:50 | 39.86360 | -104.67012 | 5372 ft | 3 kts | 180° |
| 2026-04-21 15:50 | 39.86380 | -104.67012 | 5372 ft | 3 kts | 180° |
| 2026-04-21 15:50 | 39.86401 | -104.67012 | 5373 ft | 3 kts | 180° |
| 2026-04-21 15:51 | 39.86417 | -104.67012 | 5372 ft | 3 kts | 180° |
| 2026-04-21 15:53 | 39.86416 | -104.67012 | 5376 ft | 0 kts | 171° |
| 2026-04-21 15:54 | 39.86415 | -104.67003 | 5376 ft | 1 kts | 95° |
| 2026-04-21 15:54 | 39.86433 | -104.66967 | 5374 ft | 10 kts | 59° |
| 2026-04-21 15:54 | 39.86470 | -104.66847 | 5374 ft | 17 kts | 89° |
| 2026-04-21 15:54 | 39.86469 | -104.66695 | 5374 ft | 17 kts | 91° |
| 2026-04-21 15:55 | 39.86489 | -104.66546 | 5375 ft | 17 kts | 64° |
| 2026-04-21 15:55 | 39.86501 | -104.66396 | 5375 ft | 17 kts | 90° |
| 2026-04-21 15:55 | 39.86501 | -104.66248 | 5377 ft | 16 kts | 90° |
| 2026-04-21 15:55 | 39.86499 | -104.66105 | 5381 ft | 16 kts | 89° |
| 2026-04-21 15:56 | 39.86498 | -104.65940 | 5375 ft | 20 kts | 90° |
| 2026-04-21 15:56 | 39.86496 | -104.65747 | 5370 ft | 23 kts | 91° |
| 2026-04-21 15:56 | 39.86495 | -104.65538 | 5368 ft | 23 kts | 90° |
| 2026-04-21 15:56 | 39.86493 | -104.65339 | 5364 ft | 22 kts | 91° |
| 2026-04-21 15:57 | 39.86492 | -104.65145 | 5360 ft | 21 kts | 90° |
| 2026-04-21 15:57 | 39.86490 | -104.64960 | 5357 ft | 21 kts | 91° |
| 2026-04-21 15:57 | 39.86489 | -104.64777 | 5351 ft | 20 kts | 90° |
| 2026-04-21 15:57 | 39.86487 | -104.64597 | 5349 ft | 19 kts | 91° |
| 2026-04-21 15:58 | 39.86487 | -104.64424 | 5345 ft | 19 kts | 90° |
| 2026-04-21 15:58 | 39.86486 | -104.64340 | 5344 ft | 18 kts | 90° |
| 2026-04-21 15:58 | 39.86484 | -104.64176 | 5347 ft | 16 kts | 94° |
| 2026-04-21 15:58 | 39.86417 | -104.64132 | 5346 ft | 11 kts | 180° |
| 2026-04-21 15:59 | 39.86179 | -104.64135 | 5347 ft | 66 kts | 180° |
| 2026-04-21 15:59 | 39.85508 | -104.64141 | 5354 ft | 125 kts | 180° |
| 2026-04-21 15:59 | 39.84466 | -104.64159 | 5366 ft | 174 kts | 183° |
| 2026-04-21 15:59 | 39.83173 | -104.64166 | 5815 ft | 188 kts | 183° |
| 2026-04-21 16:00 | 39.81844 | -104.64217 | 6555 ft | 198 kts | 182° |
| 2026-04-21 16:00 | 39.80458 | -104.64241 | 7190 ft | 201 kts | 183° |
| 2026-04-21 16:00 | 39.78984 | -104.64248 | 7403 ft | 222 kts | 181° |
| 2026-04-21 16:00 | 39.77372 | -104.64258 | 7606 ft | 240 kts | 182° |
| 2026-04-21 16:01 | 39.75647 | -104.64274 | 7727 ft | 261 kts | 181° |
| 2026-04-21 16:01 | 39.73749 | -104.64262 | 7900 ft | 283 kts | 180° |
| 2026-04-21 16:01 | 39.71740 | -104.64269 | 8484 ft | 290 kts | 182° |
| 2026-04-21 16:01 | 39.69706 | -104.64314 | 9185 ft | 293 kts | 182° |
| 2026-04-21 16:02 | 39.67673 | -104.64353 | 9918 ft | 296 kts | 182° |
| 2026-04-21 16:02 | 39.65589 | -104.64381 | 10500 ft | 305 kts | 181° |
| 2026-04-21 16:02 | 39.63410 | -104.63908 | 10611 ft | 332 kts | 160° |
| 2026-04-21 16:02 | 39.61246 | -104.62729 | 10786 ft | 352 kts | 157° |
| 2026-04-21 16:03 | 39.58955 | -104.61414 | 11157 ft | 364 kts | 156° |
| 2026-04-21 16:03 | 39.56631 | -104.60075 | 11741 ft | 367 kts | 157° |
| 2026-04-21 16:03 | 39.54283 | -104.58734 | 12443 ft | 369 kts | 157° |
| 2026-04-21 16:03 | 39.51933 | -104.57407 | 13251 ft | 368 kts | 157° |
| 2026-04-21 16:04 | 39.49570 | -104.56083 | 13967 ft | 370 kts | 158° |
| 2026-04-21 16:04 | 39.47192 | -104.54758 | 14607 ft | 374 kts | 158° |
| 2026-04-21 16:04 | 39.44789 | -104.53425 | 15216 ft | 378 kts | 158° |
| 2026-04-21 16:04 | 39.42389 | -104.52095 | 15853 ft | 381 kts | 158° |
| 2026-04-21 16:05 | 39.39939 | -104.50739 | 16536 ft | 384 kts | 158° |
| 2026-04-21 16:05 | 39.37470 | -104.49376 | 17152 ft | 388 kts | 158° |
| 2026-04-21 16:05 | 39.34980 | -104.48001 | 17789 ft | 391 kts | 158° |
| 2026-04-21 16:05 | 39.32454 | -104.46608 | 18419 ft | 395 kts | 158° |
| 2026-04-21 16:06 | 39.29917 | -104.45209 | 18933 ft | 399 kts | 158° |
| 2026-04-21 16:06 | 39.27353 | -104.43795 | 19506 ft | 402 kts | 158° |
| 2026-04-21 16:06 | 39.24766 | -104.42370 | 20074 ft | 405 kts | 158° |
| 2026-04-21 16:06 | 39.22158 | -104.40935 | 20619 ft | 409 kts | 157° |
| 2026-04-21 16:07 | 39.19551 | -104.39428 | 21154 ft | 413 kts | 156° |
| 2026-04-21 16:07 | 39.16969 | -104.37871 | 21664 ft | 416 kts | 155° |
| 2026-04-21 16:07 | 39.14325 | -104.36286 | 22173 ft | 420 kts | 157° |
| 2026-04-21 16:07 | 39.11553 | -104.35069 | 22646 ft | 423 kts | 165° |
| 2026-04-21 16:08 | 39.05769 | -104.33302 | 23628 ft | 430 kts | 168° |
| 2026-04-21 16:08 | 39.02827 | -104.32450 | 24025 ft | 433 kts | 167° |
| 2026-04-21 16:08 | 38.99876 | -104.31572 | 24407 ft | 437 kts | 167° |
| 2026-04-21 16:09 | 38.96907 | -104.30662 | 24785 ft | 440 kts | 167° |
| 2026-04-21 16:09 | 38.93951 | -104.29736 | 25129 ft | 443 kts | 166° |
| 2026-04-21 16:09 | 38.90941 | -104.28782 | 25517 ft | 446 kts | 166° |
| 2026-04-21 16:09 | 38.87914 | -104.27818 | 25847 ft | 449 kts | 166° |
| 2026-04-21 16:10 | 38.84864 | -104.26844 | 26197 ft | 452 kts | 167° |
| 2026-04-21 16:10 | 38.81839 | -104.25882 | 26470 ft | 456 kts | 167° |
| 2026-04-21 16:10 | 38.78752 | -104.24900 | 26841 ft | 457 kts | 167° |
| 2026-04-21 16:10 | 38.75653 | -104.23914 | 27139 ft | 460 kts | 167° |
| 2026-04-21 16:11 | 38.72534 | -104.22924 | 27457 ft | 462 kts | 167° |
| 2026-04-21 16:11 | 38.69393 | -104.21928 | 27749 ft | 465 kts | 166° |
| 2026-04-21 16:11 | 38.66286 | -104.20944 | 28075 ft | 467 kts | 166° |
| 2026-04-21 16:11 | 38.63108 | -104.19938 | 28315 ft | 471 kts | 166° |
| 2026-04-21 16:12 | 38.60995 | -104.19270 | 28586 ft | 471 kts | 167° |
| 2026-04-21 16:12 | 38.56710 | -104.17916 | 28958 ft | 476 kts | 167° |
| 2026-04-21 16:12 | 38.53524 | -104.16911 | 29306 ft | 477 kts | 167° |
| 2026-04-21 16:12 | 38.50368 | -104.15575 | 29618 ft | 479 kts | 153° |
| 2026-04-21 16:13 | 38.47648 | -104.13174 | 30176 ft | 473 kts | 139° |
| 2026-04-21 16:13 | 38.45166 | -104.10444 | 30763 ft | 467 kts | 139° |
| 2026-04-21 16:13 | 38.42719 | -104.07729 | 31106 ft | 467 kts | 138° |
| 2026-04-21 16:13 | 38.40256 | -104.05009 | 31355 ft | 469 kts | 139° |
| 2026-04-21 16:14 | 38.37765 | -104.02285 | 31641 ft | 470 kts | 139° |
| 2026-04-21 16:14 | 38.35280 | -103.99592 | 32042 ft | 468 kts | 139° |
| 2026-04-21 16:14 | 38.32795 | -103.96915 | 32469 ft | 466 kts | 139° |
| 2026-04-21 16:14 | 38.30354 | -103.94296 | 32840 ft | 464 kts | 139° |
| 2026-04-21 16:15 | 38.27887 | -103.91652 | 33168 ft | 464 kts | 139° |
| 2026-04-21 16:15 | 38.25415 | -103.89007 | 33533 ft | 463 kts | 139° |
| 2026-04-21 16:15 | 38.22946 | -103.86364 | 33911 ft | 462 kts | 138° |
| 2026-04-21 16:15 | 38.20481 | -103.83728 | 34200 ft | 462 kts | 138° |
| 2026-04-21 16:16 | 38.18018 | -103.81096 | 34427 ft | 463 kts | 138° |
| 2026-04-21 16:16 | 38.15547 | -103.78456 | 34692 ft | 463 kts | 138° |
| 2026-04-21 16:16 | 38.13110 | -103.75856 | 34994 ft | 462 kts | 138° |
| 2026-04-21 16:17 | 38.08138 | -103.70557 | 35056 ft | 467 kts | 138° |
| 2026-04-21 16:17 | 38.02898 | -103.65717 | 35081 ft | 464 kts | 147° |
| 2026-04-21 16:18 | 37.97295 | -103.61731 | 35081 ft | 463 kts | 149° |
| 2026-04-21 16:18 | 37.94470 | -103.59776 | 34951 ft | 463 kts | 149° |
| 2026-04-21 16:18 | 37.91646 | -103.57800 | 34949 ft | 462 kts | 149° |
| 2026-04-21 16:19 | 37.86037 | -103.53792 | 34945 ft | 462 kts | 148° |
| 2026-04-21 16:19 | 37.80449 | -103.49736 | 34946 ft | 462 kts | 148° |
| 2026-04-21 16:20 | 37.75815 | -103.46363 | 34948 ft | 463 kts | 148° |
| 2026-04-21 16:20 | 37.70208 | -103.42286 | 34949 ft | 464 kts | 148° |
| 2026-04-21 16:21 | 37.64623 | -103.38236 | 34945 ft | 466 kts | 148° |
| 2026-04-21 16:21 | 37.59027 | -103.34189 | 34941 ft | 467 kts | 148° |
| 2026-04-21 16:22 | 37.53373 | -103.30107 | 34939 ft | 468 kts | 148° |
| 2026-04-21 16:22 | 37.47713 | -103.26027 | 34940 ft | 468 kts | 148° |
| 2026-04-21 16:23 | 37.42044 | -103.21948 | 34939 ft | 468 kts | 148° |
| 2026-04-21 16:23 | 37.36418 | -103.17907 | 34929 ft | 468 kts | 148° |
| 2026-04-21 16:24 | 37.30749 | -103.13843 | 34924 ft | 468 kts | 148° |
| 2026-04-21 16:24 | 37.25077 | -103.09784 | 34925 ft | 468 kts | 148° |
| 2026-04-21 16:25 | 37.19409 | -103.05733 | 34916 ft | 468 kts | 148° |
| 2026-04-21 16:25 | 37.13750 | -103.01697 | 34915 ft | 468 kts | 148° |
| 2026-04-21 16:26 | 37.08117 | -102.97687 | 34920 ft | 467 kts | 148° |
| 2026-04-21 16:26 | 37.02456 | -102.93663 | 34920 ft | 467 kts | 148° |
| 2026-04-21 16:27 | 36.96787 | -102.89641 | 34916 ft | 467 kts | 148° |
| 2026-04-21 16:27 | 36.91158 | -102.85653 | 34927 ft | 467 kts | 148° |
| 2026-04-21 16:28 | 36.85491 | -102.81646 | 34924 ft | 467 kts | 148° |
| 2026-04-21 16:28 | 36.79868 | -102.77677 | 34935 ft | 467 kts | 148° |
| 2026-04-21 16:29 | 36.74201 | -102.73683 | 34936 ft | 467 kts | 148° |
| 2026-04-21 16:29 | 36.68527 | -102.69692 | 34942 ft | 468 kts | 148° |
| 2026-04-21 16:30 | 36.62857 | -102.65710 | 34950 ft | 468 kts | 148° |
| 2026-04-21 16:30 | 36.57189 | -102.61736 | 34951 ft | 468 kts | 148° |
| 2026-04-21 16:31 | 36.51515 | -102.57764 | 34956 ft | 468 kts | 149° |
| 2026-04-21 16:31 | 36.45837 | -102.53797 | 34968 ft | 468 kts | 149° |
| 2026-04-21 16:32 | 36.40189 | -102.49857 | 34964 ft | 468 kts | 149° |
| 2026-04-21 16:32 | 36.34495 | -102.45893 | 34988 ft | 468 kts | 149° |
| 2026-04-21 16:33 | 36.28815 | -102.41944 | 35016 ft | 468 kts | 149° |
| 2026-04-21 16:33 | 36.23112 | -102.37987 | 35040 ft | 469 kts | 149° |
| 2026-04-21 16:34 | 36.17440 | -102.34057 | 35051 ft | 470 kts | 149° |
| 2026-04-21 16:34 | 36.11721 | -102.30101 | 35060 ft | 470 kts | 150° |
| 2026-04-21 16:35 | 36.06027 | -102.26169 | 35057 ft | 472 kts | 150° |
| 2026-04-21 16:35 | 36.00273 | -102.22203 | 35038 ft | 473 kts | 150° |
| 2026-04-21 16:36 | 35.94520 | -102.18243 | 35001 ft | 474 kts | 150° |
| 2026-04-21 16:36 | 35.88789 | -102.14304 | 35018 ft | 474 kts | 150° |
| 2026-04-21 16:37 | 35.83022 | -102.10348 | 35118 ft | 474 kts | 150° |
| 2026-04-21 16:37 | 35.77253 | -102.06399 | 35116 ft | 474 kts | 151° |
| 2026-04-21 16:38 | 35.71491 | -102.02461 | 35109 ft | 473 kts | 150° |
| 2026-04-21 16:38 | 35.65767 | -101.98554 | 35078 ft | 473 kts | 150° |
| 2026-04-21 16:39 | 35.60017 | -101.94636 | 35044 ft | 472 kts | 150° |
| 2026-04-21 16:39 | 35.54265 | -101.90723 | 35031 ft | 471 kts | 150° |
| 2026-04-21 16:40 | 35.48565 | -101.86852 | 35046 ft | 471 kts | 150° |
| 2026-04-21 16:40 | 35.42827 | -101.82962 | 35078 ft | 471 kts | 150° |
| 2026-04-21 16:41 | 35.37078 | -101.79070 | 35114 ft | 471 kts | 151° |
| 2026-04-21 16:41 | 35.31365 | -101.75208 | 35145 ft | 471 kts | 150° |
| 2026-04-21 16:42 | 35.25620 | -101.71330 | 35142 ft | 471 kts | 150° |
| 2026-04-21 16:42 | 35.19877 | -101.67431 | 35156 ft | 471 kts | 150° |
| 2026-04-21 16:43 | 35.14184 | -101.63492 | 35041 ft | 472 kts | 150° |
| 2026-04-21 16:43 | 35.08467 | -101.59531 | 35046 ft | 472 kts | 150° |
| 2026-04-21 16:44 | 35.02733 | -101.55574 | 35048 ft | 473 kts | 150° |
| 2026-04-21 16:44 | 34.97036 | -101.51655 | 35052 ft | 473 kts | 150° |
| 2026-04-21 16:45 | 34.91294 | -101.47714 | 35045 ft | 474 kts | 150° |
| 2026-04-21 16:45 | 34.85541 | -101.43771 | 35055 ft | 474 kts | 150° |
| 2026-04-21 16:46 | 34.79813 | -101.39852 | 35056 ft | 474 kts | 150° |
| 2026-04-21 16:46 | 34.74045 | -101.35912 | 35054 ft | 475 kts | 150° |
| 2026-04-21 16:47 | 34.68268 | -101.31971 | 35046 ft | 476 kts | 150° |
| 2026-04-21 16:47 | 34.62522 | -101.28057 | 35069 ft | 476 kts | 150° |
| 2026-04-21 16:48 | 34.56721 | -101.24114 | 35067 ft | 477 kts | 150° |
| 2026-04-21 16:48 | 34.50912 | -101.20170 | 35063 ft | 477 kts | 150° |
| 2026-04-21 16:49 | 34.45153 | -101.16268 | 35060 ft | 477 kts | 151° |
| 2026-04-21 16:49 | 34.39332 | -101.12329 | 35070 ft | 478 kts | 151° |
| 2026-04-21 16:50 | 34.33554 | -101.08426 | 35068 ft | 478 kts | 151° |
| 2026-04-21 16:50 | 34.27741 | -101.04505 | 35078 ft | 478 kts | 151° |
| 2026-04-21 16:51 | 34.21915 | -101.00582 | 35074 ft | 479 kts | 152° |
| 2026-04-21 16:51 | 34.16083 | -100.96662 | 35090 ft | 479 kts | 152° |
| 2026-04-21 16:52 | 34.10285 | -100.92769 | 35092 ft | 480 kts | 152° |
| 2026-04-21 16:52 | 34.04399 | -100.88825 | 35095 ft | 481 kts | 152° |
| 2026-04-21 16:53 | 33.98585 | -100.84934 | 35087 ft | 482 kts | 153° |
| 2026-04-21 16:53 | 33.92717 | -100.81014 | 35109 ft | 482 kts | 153° |
| 2026-04-21 16:54 | 33.86837 | -100.77092 | 35108 ft | 483 kts | 153° |
| 2026-04-21 16:54 | 33.80943 | -100.73167 | 35112 ft | 484 kts | 153° |
| 2026-04-21 16:55 | 33.75039 | -100.69241 | 35108 ft | 485 kts | 153° |
| 2026-04-21 16:55 | 33.69164 | -100.65341 | 35115 ft | 485 kts | 154° |
| 2026-04-21 16:56 | 33.63248 | -100.61420 | 35117 ft | 486 kts | 154° |
| 2026-04-21 16:56 | 33.57323 | -100.57499 | 35119 ft | 487 kts | 154° |
| 2026-04-21 16:57 | 33.51398 | -100.53585 | 35131 ft | 486 kts | 154° |
| 2026-04-21 16:57 | 33.45468 | -100.49672 | 35121 ft | 486 kts | 155° |
| 2026-04-21 16:58 | 33.39556 | -100.45779 | 35126 ft | 486 kts | 155° |
| 2026-04-21 16:58 | 33.33629 | -100.41881 | 35129 ft | 486 kts | 155° |
| 2026-04-21 16:59 | 33.27727 | -100.38007 | 35128 ft | 486 kts | 155° |
| 2026-04-21 16:59 | 33.21790 | -100.34114 | 35119 ft | 486 kts | 156° |
| 2026-04-21 17:00 | 33.15838 | -100.30220 | 35130 ft | 488 kts | 156° |
| 2026-04-21 17:00 | 33.10879 | -100.26979 | 35143 ft | 490 kts | 156° |
| 2026-04-21 17:01 | 33.03893 | -100.22421 | 35144 ft | 492 kts | 156° |
| 2026-04-21 17:01 | 32.97894 | -100.18512 | 35150 ft | 493 kts | 156° |
| 2026-04-21 17:02 | 32.91854 | -100.14583 | 35134 ft | 494 kts | 156° |
| 2026-04-21 17:02 | 32.85813 | -100.10659 | 35140 ft | 493 kts | 156° |
| 2026-04-21 17:03 | 32.79842 | -100.06786 | 35141 ft | 491 kts | 156° |
| 2026-04-21 17:03 | 32.73840 | -100.02900 | 35117 ft | 490 kts | 157° |
| 2026-04-21 17:04 | 32.67853 | -99.99030 | 35159 ft | 489 kts | 157° |
| 2026-04-21 17:04 | 32.61872 | -99.95170 | 35188 ft | 489 kts | 157° |
| 2026-04-21 17:05 | 32.55908 | -99.91326 | 35200 ft | 491 kts | 157° |
| 2026-04-21 17:05 | 32.49887 | -99.87451 | 35171 ft | 492 kts | 158° |
| 2026-04-21 17:06 | 32.43767 | -99.83902 | 35195 ft | 487 kts | 164° |
| 2026-04-21 17:06 | 32.37497 | -99.80961 | 35210 ft | 487 kts | 166° |
| 2026-04-21 17:07 | 32.32193 | -99.78519 | 35175 ft | 489 kts | 165° |
| 2026-04-21 17:07 | 32.25893 | -99.75534 | 35177 ft | 491 kts | 164° |
| 2026-04-21 17:08 | 32.19564 | -99.72477 | 35171 ft | 491 kts | 164° |
| 2026-04-21 17:08 | 32.13240 | -99.69413 | 35171 ft | 490 kts | 164° |
| 2026-04-21 17:09 | 32.03816 | -99.64863 | 35194 ft | 489 kts | 165° |
| 2026-04-21 17:09 | 31.97523 | -99.61834 | 35185 ft | 487 kts | 165° |
| 2026-04-21 17:10 | 31.91251 | -99.58820 | 35214 ft | 485 kts | 165° |
| 2026-04-21 17:10 | 31.85041 | -99.55841 | 35228 ft | 483 kts | 165° |
| 2026-04-21 17:11 | 31.78818 | -99.52860 | 35232 ft | 482 kts | 165° |
| 2026-04-21 17:11 | 31.72597 | -99.49884 | 35229 ft | 481 kts | 165° |
| 2026-04-21 17:12 | 31.66444 | -99.46944 | 35214 ft | 480 kts | 165° |
| 2026-04-21 17:12 | 31.60239 | -99.43985 | 35019 ft | 483 kts | 165° |
| 2026-04-21 17:13 | 31.57109 | -99.42497 | 34443 ft | 486 kts | 165° |
| 2026-04-21 17:13 | 31.53976 | -99.41004 | 33803 ft | 485 kts | 165° |
| 2026-04-21 17:13 | 31.50842 | -99.39512 | 33108 ft | 486 kts | 165° |
| 2026-04-21 17:13 | 31.47699 | -99.38016 | 32423 ft | 486 kts | 165° |
| 2026-04-21 17:14 | 31.44605 | -99.36545 | 31858 ft | 484 kts | 165° |
| 2026-04-21 17:14 | 31.41494 | -99.35064 | 31400 ft | 479 kts | 165° |
| 2026-04-21 17:14 | 31.38407 | -99.33598 | 30935 ft | 475 kts | 165° |
| 2026-04-21 17:14 | 31.35351 | -99.32148 | 30480 ft | 471 kts | 165° |
| 2026-04-21 17:15 | 31.32354 | -99.30729 | 29967 ft | 468 kts | 165° |
| 2026-04-21 17:15 | 31.29348 | -99.29309 | 29442 ft | 464 kts | 165° |
| 2026-04-21 17:15 | 31.26364 | -99.27907 | 28945 ft | 459 kts | 165° |
| 2026-04-21 17:15 | 31.23408 | -99.26521 | 28465 ft | 454 kts | 164° |
| 2026-04-21 17:16 | 31.20473 | -99.25148 | 27977 ft | 450 kts | 164° |
| 2026-04-21 17:16 | 31.17609 | -99.23809 | 27494 ft | 445 kts | 164° |
| 2026-04-21 17:16 | 31.14743 | -99.22468 | 27037 ft | 441 kts | 164° |
| 2026-04-21 17:16 | 31.11897 | -99.21139 | 26576 ft | 437 kts | 163° |
| 2026-04-21 17:17 | 31.09085 | -99.19826 | 26115 ft | 434 kts | 163° |
| 2026-04-21 17:17 | 31.06294 | -99.18522 | 25653 ft | 431 kts | 163° |
| 2026-04-21 17:17 | 31.03542 | -99.17238 | 25198 ft | 428 kts | 163° |
| 2026-04-21 17:17 | 31.00773 | -99.15947 | 24724 ft | 426 kts | 162° |
| 2026-04-21 17:18 | 30.98025 | -99.14667 | 24258 ft | 424 kts | 162° |
| 2026-04-21 17:18 | 30.95292 | -99.13394 | 23784 ft | 422 kts | 162° |
| 2026-04-21 17:18 | 30.92569 | -99.12125 | 23249 ft | 419 kts | 162° |
| 2026-04-21 17:18 | 30.89897 | -99.10881 | 22757 ft | 416 kts | 162° |
| 2026-04-21 17:19 | 30.87212 | -99.09627 | 22359 ft | 411 kts | 162° |
| 2026-04-21 17:19 | 30.84570 | -99.08384 | 21943 ft | 407 kts | 162° |
| 2026-04-21 17:19 | 30.81954 | -99.07151 | 21500 ft | 404 kts | 161° |
| 2026-04-21 17:19 | 30.79358 | -99.05927 | 21057 ft | 401 kts | 161° |
| 2026-04-21 17:20 | 30.76779 | -99.04713 | 20632 ft | 398 kts | 161° |
| 2026-04-21 17:20 | 30.74243 | -99.03520 | 20204 ft | 395 kts | 161° |
| 2026-04-21 17:20 | 30.71699 | -99.02325 | 19767 ft | 392 kts | 161° |
| 2026-04-21 17:20 | 30.69174 | -99.01140 | 19343 ft | 390 kts | 161° |
| 2026-04-21 17:21 | 30.66658 | -98.99959 | 18897 ft | 389 kts | 161° |
| 2026-04-21 17:21 | 30.64182 | -98.98798 | 18444 ft | 387 kts | 161° |
| 2026-04-21 17:21 | 30.61687 | -98.97629 | 17965 ft | 384 kts | 161° |
| 2026-04-21 17:21 | 30.59214 | -98.96470 | 17515 ft | 381 kts | 161° |
| 2026-04-21 17:22 | 30.56765 | -98.95323 | 17076 ft | 378 kts | 161° |
| 2026-04-21 17:22 | 30.54330 | -98.94184 | 16601 ft | 376 kts | 161° |
| 2026-04-21 17:22 | 30.51883 | -98.93040 | 16056 ft | 377 kts | 161° |
| 2026-04-21 17:22 | 30.49486 | -98.91920 | 15624 ft | 374 kts | 161° |
| 2026-04-21 17:23 | 30.47079 | -98.90795 | 15193 ft | 372 kts | 161° |
| 2026-04-21 17:23 | 30.44681 | -98.89675 | 14771 ft | 369 kts | 161° |
| 2026-04-21 17:23 | 30.42309 | -98.88568 | 14351 ft | 366 kts | 161° |
| 2026-04-21 17:23 | 30.39952 | -98.87468 | 13924 ft | 364 kts | 161° |
| 2026-04-21 17:24 | 30.37610 | -98.86376 | 13474 ft | 361 kts | 161° |
| 2026-04-21 17:24 | 30.35288 | -98.85295 | 13047 ft | 358 kts | 161° |
| 2026-04-21 17:24 | 30.33007 | -98.84232 | 12632 ft | 354 kts | 161° |
| 2026-04-21 17:24 | 30.30720 | -98.83168 | 12208 ft | 351 kts | 161° |
| 2026-04-21 17:25 | 30.28460 | -98.82116 | 11825 ft | 347 kts | 161° |
| 2026-04-21 17:25 | 30.26259 | -98.81092 | 11432 ft | 344 kts | 161° |
| 2026-04-21 17:25 | 30.24041 | -98.80062 | 11039 ft | 342 kts | 161° |
| 2026-04-21 17:25 | 30.21856 | -98.79046 | 10729 ft | 332 kts | 161° |
| 2026-04-21 17:26 | 30.19765 | -98.78073 | 10574 ft | 315 kts | 161° |
| 2026-04-21 17:26 | 30.17777 | -98.77149 | 10429 ft | 300 kts | 161° |
| 2026-04-21 17:26 | 30.15865 | -98.76262 | 10311 ft | 293 kts | 161° |
| 2026-04-21 17:26 | 30.13997 | -98.75397 | 10199 ft | 293 kts | 161° |
| 2026-04-21 17:27 | 30.12096 | -98.74518 | 10087 ft | 294 kts | 161° |
| 2026-04-21 17:27 | 30.10154 | -98.73805 | 9897 ft | 292 kts | 177° |
| 2026-04-21 17:27 | 30.08138 | -98.73856 | 9720 ft | 290 kts | 186° |
| 2026-04-21 17:27 | 30.06121 | -98.74013 | 9500 ft | 289 kts | 186° |
| 2026-04-21 17:28 | 30.04121 | -98.74162 | 9292 ft | 284 kts | 186° |
| 2026-04-21 17:28 | 30.02168 | -98.74298 | 9083 ft | 279 kts | 186° |
| 2026-04-21 17:28 | 30.00276 | -98.74423 | 8913 ft | 273 kts | 185° |
| 2026-04-21 17:28 | 29.98351 | -98.74547 | 8712 ft | 273 kts | 185° |
| 2026-04-21 17:29 | 29.96474 | -98.74668 | 8512 ft | 273 kts | 185° |
| 2026-04-21 17:29 | 29.94574 | -98.74790 | 8298 ft | 273 kts | 185° |
| 2026-04-21 17:29 | 29.92687 | -98.74804 | 8106 ft | 269 kts | 179° |
| 2026-04-21 17:29 | 29.90855 | -98.74632 | 7908 ft | 259 kts | 177° |
| 2026-04-21 17:30 | 29.89093 | -98.74444 | 7721 ft | 248 kts | 177° |
| 2026-04-21 17:30 | 29.87427 | -98.74278 | 7541 ft | 238 kts | 178° |
| 2026-04-21 17:30 | 29.85815 | -98.74129 | 7401 ft | 225 kts | 178° |
| 2026-04-21 17:30 | 29.84280 | -98.73992 | 7263 ft | 219 kts | 178° |
| 2026-04-21 17:31 | 29.82768 | -98.73860 | 7114 ft | 215 kts | 178° |
| 2026-04-21 17:31 | 29.81275 | -98.73730 | 6927 ft | 214 kts | 178° |
| 2026-04-21 17:31 | 29.79787 | -98.73601 | 6745 ft | 214 kts | 177° |
| 2026-04-21 17:31 | 29.78324 | -98.73475 | 6574 ft | 212 kts | 177° |
| 2026-04-21 17:32 | 29.77332 | -98.73389 | 6450 ft | 211 kts | 177° |
| 2026-04-21 17:32 | 29.75400 | -98.73221 | 6212 ft | 206 kts | 177° |
| 2026-04-21 17:32 | 29.74005 | -98.73082 | 6028 ft | 196 kts | 172° |
| 2026-04-21 17:32 | 29.72837 | -98.72335 | 5808 ft | 195 kts | 137° |
| 2026-04-21 17:33 | 29.71946 | -98.71208 | 5576 ft | 187 kts | 140° |
| 2026-04-21 17:33 | 29.71053 | -98.70156 | 5373 ft | 182 kts | 139° |
| 2026-04-21 17:33 | 29.70198 | -98.69100 | 5216 ft | 174 kts | 138° |
| 2026-04-21 17:33 | 29.69405 | -98.68096 | 5180 ft | 173 kts | 138° |
| 2026-04-21 17:34 | 29.68586 | -98.67050 | 4983 ft | 179 kts | 137° |
| 2026-04-21 17:34 | 29.67754 | -98.65979 | 4756 ft | 179 kts | 136° |
| 2026-04-21 17:34 | 29.66933 | -98.64918 | 4509 ft | 176 kts | 136° |
| 2026-04-21 17:34 | 29.66136 | -98.63886 | 4273 ft | 170 kts | 136° |
| 2026-04-21 17:35 | 29.65361 | -98.62885 | 4082 ft | 170 kts | 136° |
| 2026-04-21 17:35 | 29.64567 | -98.61862 | 3853 ft | 172 kts | 136° |
| 2026-04-21 17:35 | 29.63770 | -98.60833 | 3634 ft | 172 kts | 135° |
| 2026-04-21 17:35 | 29.62980 | -98.59812 | 3413 ft | 170 kts | 135° |
| 2026-04-21 17:36 | 29.62199 | -98.58802 | 3182 ft | 169 kts | 136° |
| 2026-04-21 17:36 | 29.61416 | -98.57791 | 2971 ft | 170 kts | 134° |
| 2026-04-21 17:36 | 29.60636 | -98.56781 | 2751 ft | 168 kts | 133° |
| 2026-04-21 17:36 | 29.59873 | -98.55796 | 2549 ft | 158 kts | 132° |
| 2026-04-21 17:37 | 29.59170 | -98.54886 | 2334 ft | 146 kts | 132° |
| 2026-04-21 17:37 | 29.58496 | -98.54017 | 2135 ft | 144 kts | 132° |
| 2026-04-21 17:37 | 29.58058 | -98.53449 | 2017 ft | 142 kts | 131° |
| 2026-04-21 17:37 | 29.57190 | -98.52325 | 1759 ft | 145 kts | 130° |
| 2026-04-21 17:38 | 29.56514 | -98.51452 | 1556 ft | 146 kts | 129° |
| 2026-04-21 17:38 | 29.55843 | -98.50587 | 1351 ft | 143 kts | 130° |
| 2026-04-21 17:38 | 29.55169 | -98.49737 | 1164 ft | 147 kts | 130° |
| 2026-04-21 17:38 | 29.54494 | -98.48829 | 928 ft | 148 kts | 131° |
| 2026-04-21 17:39 | 29.53828 | -98.47987 | 803 ft | 139 kts | 131° |
| 2026-04-21 17:39 | 29.53320 | -98.47325 | 793 ft | 80 kts | 130° |
| 2026-04-21 17:39 | 29.53030 | -98.46951 | 792 ft | 55 kts | 132° |
| 2026-04-21 17:39 | 29.52851 | -98.46727 | 788 ft | 25 kts | 141° |
| 2026-04-21 17:40 | 29.52766 | -98.46731 | 788 ft | 7 kts | 219° |
| 2026-04-21 17:40 | 29.52730 | -98.46773 | 789 ft | 7 kts | 225° |
| 2026-04-21 17:40 | 29.52707 | -98.46820 | 789 ft | 7 kts | 265° |
| 2026-04-21 17:40 | 29.52718 | -98.46861 | 789 ft | 5 kts | 318° |
| 2026-04-21 17:41 | 29.52745 | -98.46889 | 789 ft | 5 kts | 318° |
| 2026-04-21 17:41 | 29.52772 | -98.46918 | 789 ft | 5 kts | 313° |
| 2026-04-21 17:41 | 29.52795 | -98.46947 | 789 ft | 5 kts | 312° |
| 2026-04-21 17:41 | 29.52819 | -98.46977 | 790 ft | 5 kts | 310° |
| 2026-04-21 17:42 | 29.52841 | -98.47007 | 791 ft | 5 kts | 306° |
| 2026-04-21 17:42 | 29.52845 | -98.47044 | 792 ft | 5 kts | 256° |
| 2026-04-21 17:42 | 29.52829 | -98.47078 | 792 ft | 5 kts | 230° |
| 2026-04-21 17:42 | 29.52804 | -98.47103 | 791 ft | 5 kts | 210° |
| 2026-04-21 17:43 | 29.52774 | -98.47114 | 791 ft | 5 kts | 178° |
| 2026-04-21 17:43 | 29.52744 | -98.47097 | 791 ft | 5 kts | 146° |
| 2026-04-21 17:43 | 29.52740 | -98.47094 | 791 ft | 0 kts | 146° |